createdAt,value
2022-10-24T00:01:22.415Z,63.61
2022-10-24T00:06:20.160Z,62.43
2022-10-24T00:08:47.459Z,67.75
2022-10-24T00:11:23.083Z,67.92
2022-10-24T00:13:51.226Z,66.78
2022-10-24T00:16:18.381Z,67.07
2022-10-24T00:18:45.316Z,68.35
2022-10-24T00:21:12.290Z,66.01
2022-10-24T00:27:12.367Z,66.06
2022-10-24T00:32:50.651Z,67.29
2022-10-24T00:35:17.768Z,64.45
2022-10-24T00:37:44.814Z,64.01
2022-10-24T00:40:15.121Z,62.88
2022-10-24T00:42:42.020Z,63.06
2022-10-24T00:45:47.701Z,63.94
2022-10-24T00:48:18.620Z,64.82
2022-10-24T00:50:46.571Z,62.05
2022-10-24T00:53:14.459Z,62.13
2022-10-24T00:55:41.363Z,62.77
2022-10-24T00:58:08.909Z,64.17
2022-10-24T01:00:36.334Z,64.91
2022-10-24T01:03:03.336Z,64.09
2022-10-24T01:05:37.872Z,65.48
2022-10-24T01:08:07.721Z,63.87
2022-10-24T01:11:36.149Z,64.31
2022-10-24T01:14:18.545Z,61.74
2022-10-24T01:16:51.937Z,63.42
2022-10-24T01:19:34.041Z,66.16
2022-10-24T01:22:06.402Z,66.65
2022-10-24T01:24:58.301Z,65.98
2022-10-24T01:27:36.652Z,64.70
2022-10-24T01:30:12.353Z,66.60
2022-10-24T01:32:41.541Z,64.83
2022-10-24T01:38:57.561Z,66.86
2022-10-24T01:41:26.648Z,67.24
2022-10-24T01:44:02.938Z,66.59
2022-10-24T01:46:35.373Z,67.66
2022-10-24T01:49:13.077Z,66.22
2022-10-24T01:51:40.171Z,68.24
2022-10-24T01:57:00.941Z,66.32
2022-10-24T01:59:30.640Z,64.16
2022-10-24T02:02:07.123Z,63.33
2022-10-24T02:04:38.047Z,68.02
2022-10-24T02:07:07.713Z,69.25
2022-10-24T02:09:35.910Z,68.27
2022-10-24T02:12:03.255Z,68.94
2022-10-24T02:14:53.988Z,68.69
2022-10-24T02:17:21.054Z,69.13
2022-10-24T02:19:48.489Z,68.28
2022-10-24T02:22:18.271Z,69.61
2022-10-24T02:24:48.058Z,67.70
2022-10-24T02:27:18.583Z,67.26
2022-10-24T02:30:12.472Z,64.40
2022-10-24T02:32:42.882Z,66.35
2022-10-24T02:35:12.134Z,65.06
2022-10-24T02:37:49.367Z,66.97
2022-10-24T02:40:18.421Z,64.71
2022-10-24T02:42:46.789Z,65.00
2022-10-24T02:45:15.797Z,64.94
2022-10-24T02:47:44.101Z,65.00
2022-10-24T02:50:11.334Z,61.73
2022-10-24T02:52:39.668Z,63.59
2022-10-24T02:55:07.081Z,63.14
2022-10-24T02:57:34.068Z,64.12
2022-10-24T03:00:00.925Z,63.60
2022-10-24T03:02:27.909Z,60.87
2022-10-24T03:04:54.805Z,62.98
2022-10-24T03:07:21.776Z,63.75
2022-10-24T03:09:48.701Z,63.49
2022-10-24T03:12:18.641Z,63.54
2022-10-24T03:17:13.327Z,68.29
2022-10-24T03:19:40.213Z,68.10
2022-10-24T03:22:07.068Z,74.08
2022-10-24T03:24:43.860Z,71.00
2022-10-24T03:27:20.797Z,67.89
2022-10-24T03:29:47.691Z,65.89
2022-10-24T03:32:14.800Z,65.55
2022-10-24T03:34:41.808Z,66.80
2022-10-24T03:37:08.669Z,66.71
2022-10-24T03:39:35.514Z,67.69
2022-10-24T03:42:02.430Z,67.90
2022-10-24T03:44:29.322Z,66.77
2022-10-24T03:46:56.157Z,65.80
2022-10-24T03:49:23.023Z,66.41
2022-10-24T03:51:49.894Z,66.21
2022-10-24T03:54:16.804Z,66.61
2022-10-24T03:56:44.282Z,67.99
2022-10-24T03:59:11.247Z,67.85
2022-10-24T04:01:38.221Z,68.45
2022-10-24T04:04:05.415Z,68.10
2022-10-24T04:06:35.548Z,68.62
2022-10-24T04:09:04.375Z,65.81
2022-10-24T04:11:31.500Z,63.57
2022-10-24T04:13:59.089Z,64.85
2022-10-24T04:16:26.042Z,64.34
2022-10-24T04:18:52.959Z,62.39
2022-10-24T04:21:21.742Z,64.39
2022-10-24T04:23:49.304Z,64.43
2022-10-24T04:26:16.973Z,63.65
2022-10-24T04:28:44.118Z,64.66
2022-10-24T04:31:11.046Z,64.81
2022-10-24T04:33:37.964Z,64.83
2022-10-24T04:36:44.922Z,66.44
2022-10-24T04:39:11.884Z,72.32
2022-10-24T04:41:38.751Z,69.04
2022-10-24T04:44:05.720Z,67.07
2022-10-24T04:46:32.815Z,76.10
2022-10-24T04:48:59.866Z,76.20
2022-10-24T04:51:26.867Z,78.23
2022-10-24T04:53:53.784Z,81.75
2022-10-24T04:56:20.764Z,81.84
2022-10-24T04:58:47.630Z,79.96
2022-10-24T05:01:14.845Z,81.29
2022-10-24T05:03:41.763Z,83.89
2022-10-24T05:06:08.707Z,83.62
2022-10-24T05:08:36.412Z,83.01
2022-10-24T05:11:03.742Z,86.11
2022-10-24T05:13:32.988Z,84.31
2022-10-24T05:16:03.555Z,80.67
2022-10-24T05:18:30.428Z,77.76
2022-10-24T05:20:58.775Z,75.96
2022-10-24T05:23:26.283Z,78.12
2022-10-24T05:25:53.534Z,75.78
2022-10-24T05:28:20.657Z,75.19
2022-10-24T05:30:47.505Z,73.53
2022-10-24T05:33:14.461Z,73.45
2022-10-24T05:35:41.973Z,72.43
2022-10-24T05:38:09.149Z,72.95
2022-10-24T05:40:36.044Z,71.16
2022-10-24T05:43:03.316Z,71.91
2022-10-24T05:45:30.151Z,71.74
2022-10-24T05:47:57.073Z,70.47
2022-10-24T05:50:23.941Z,69.68
2022-10-24T05:52:50.800Z,69.24
2022-10-24T05:55:18.429Z,67.85
2022-10-24T05:57:45.964Z,63.86
2022-10-24T06:00:14.902Z,67.17
2022-10-24T06:02:54.100Z,66.75
2022-10-24T06:05:21.366Z,69.77
2022-10-24T06:07:48.624Z,72.09
2022-10-24T06:10:18.864Z,68.02
2022-10-24T06:12:45.981Z,66.63
2022-10-24T06:15:13.763Z,66.06
2022-10-24T06:17:40.880Z,69.28
2022-10-24T06:20:08.422Z,68.09
2022-10-24T06:22:35.307Z,71.21
2022-10-24T06:25:02.255Z,69.21
2022-10-24T06:27:29.162Z,73.02
2022-10-24T06:29:56.002Z,71.14
2022-10-24T06:32:22.906Z,75.01
2022-10-24T06:34:50.715Z,77.71
2022-10-24T06:37:17.635Z,77.76
2022-10-24T06:39:44.530Z,78.28
2022-10-24T06:42:11.444Z,81.68
2022-10-24T06:44:38.833Z,78.33
2022-10-24T06:47:06.561Z,81.24
2022-10-24T06:49:33.815Z,85.88
2022-10-24T06:52:00.684Z,83.31
2022-10-24T06:54:41.346Z,82.09
2022-10-24T06:57:08.267Z,79.64
2022-10-24T06:59:35.128Z,82.02
2022-10-24T07:02:05.065Z,82.11
2022-10-24T07:04:50.752Z,86.56
2022-10-24T07:07:21.996Z,79.86
2022-10-24T07:09:57.589Z,78.59
2022-10-24T07:12:25.371Z,86.63
2022-10-24T07:14:53.261Z,78.26
2022-10-24T07:17:20.579Z,74.28
2022-10-24T07:19:53.595Z,73.59
2022-10-24T07:22:20.724Z,74.56
2022-10-24T07:24:55.384Z,73.17
2022-10-24T07:27:23.236Z,75.18
2022-10-24T07:29:51.783Z,71.59
2022-10-24T07:32:19.341Z,64.87
2022-10-24T07:34:58.448Z,67.24
2022-10-24T07:39:56.976Z,67.95
2022-10-24T07:42:23.896Z,67.38
2022-10-24T07:45:13.654Z,65.73
2022-10-24T07:47:40.627Z,63.43
2022-10-24T07:50:08.199Z,67.31
2022-10-24T07:52:35.059Z,70.92
2022-10-24T07:55:26.440Z,74.11
2022-10-24T07:57:53.418Z,75.21
2022-10-24T08:00:20.497Z,75.36
2022-10-24T08:05:23.016Z,79.34
2022-10-24T08:07:56.123Z,80.36
2022-10-24T08:10:32.637Z,81.05
2022-10-24T08:12:59.515Z,80.67
2022-10-24T08:15:28.558Z,78.15
2022-10-24T08:17:55.561Z,76.69
2022-10-24T08:20:24.308Z,78.32
2022-10-24T08:22:51.199Z,77.58
2022-10-24T08:25:18.154Z,76.94
2022-10-24T08:27:45.051Z,78.11
2022-10-24T08:30:12.454Z,77.75
2022-10-24T08:32:39.400Z,75.74
2022-10-24T08:35:07.810Z,74.99
2022-10-24T08:40:15.380Z,72.99
2022-10-24T08:42:42.326Z,79.74
2022-10-24T08:45:25.907Z,75.51
2022-10-24T08:48:07.534Z,74.62
2022-10-24T08:50:35.934Z,71.79
2022-10-24T08:53:15.716Z,73.91
2022-10-24T08:55:50.239Z,75.73
2022-10-24T08:58:29.484Z,75.62
2022-10-24T09:00:59.795Z,79.57
2022-10-24T09:04:00.299Z,78.18
2022-10-24T09:06:29.752Z,78.51
2022-10-24T09:09:08.511Z,79.62
2022-10-24T09:11:56.054Z,77.78
2022-10-24T09:14:33.287Z,83.31
2022-10-24T09:19:56.135Z,86.37
2022-10-24T09:22:24.764Z,81.54
2022-10-24T09:24:59.179Z,79.97
2022-10-24T09:27:31.352Z,78.92
2022-10-24T09:29:59.169Z,73.94
2022-10-24T09:32:30.799Z,69.89
2022-10-24T09:35:07.312Z,71.12
2022-10-24T09:37:44.301Z,70.80
2022-10-24T09:40:28.799Z,68.07
2022-10-24T09:43:04.773Z,67.23
2022-10-24T09:45:38.009Z,63.31
2022-10-24T09:48:26.035Z,71.51
2022-10-24T09:50:57.007Z,72.69
2022-10-24T09:53:39.672Z,66.67
2022-10-24T09:56:14.517Z,62.65
2022-10-24T09:58:42.179Z,68.15
2022-10-24T10:01:15.172Z,71.86
2022-10-24T10:03:42.642Z,69.12
2022-10-24T10:06:18.529Z,64.35
2022-10-24T10:08:54.343Z,66.57
2022-10-24T10:11:31.555Z,68.84
2022-10-24T10:14:01.673Z,73.74
2022-10-24T10:16:34.880Z,73.01
2022-10-24T10:19:05.636Z,71.39
2022-10-24T10:21:51.433Z,65.14
2022-10-24T10:24:37.877Z,61.43
2022-10-24T10:27:30.617Z,59.45
2022-10-24T10:30:21.022Z,57.77
2022-10-24T10:32:59.715Z,58.37
2022-10-24T10:39:16.304Z,56.60
2022-10-24T10:41:57.534Z,56.17
2022-10-24T10:44:49.512Z,55.44
2022-10-24T10:47:27.587Z,55.36
2022-10-24T10:49:57.576Z,56.00
2022-10-24T10:52:24.420Z,55.07
2022-10-24T10:54:51.207Z,54.87
2022-10-24T10:57:42.731Z,54.41
2022-10-24T11:00:16.975Z,51.38
2022-10-24T11:03:05.327Z,51.99
2022-10-24T11:05:50.237Z,53.28
2022-10-24T11:08:32.030Z,55.02
2022-10-24T11:11:04.834Z,52.09
2022-10-24T11:13:39.322Z,52.65
2022-10-24T11:16:13.958Z,51.12
2022-10-24T11:18:44.298Z,54.46
2022-10-24T11:21:13.662Z,50.24
2022-10-24T11:23:52.568Z,46.88
2022-10-24T11:26:33.301Z,46.83
2022-10-24T11:29:21.259Z,45.72
2022-10-24T11:31:55.656Z,45.69
2022-10-24T11:34:28.836Z,49.20
2022-10-24T11:37:01.452Z,49.06
2022-10-24T11:39:32.769Z,51.16
2022-10-24T11:42:33.197Z,50.38
2022-10-24T11:45:13.923Z,48.40
2022-10-24T11:48:03.079Z,51.23
2022-10-24T11:50:48.411Z,50.43
2022-10-24T11:53:28.850Z,50.94
2022-10-24T11:56:03.895Z,54.55
2022-10-24T11:58:31.817Z,58.53
2022-10-24T12:01:16.355Z,59.08
2022-10-24T12:04:05.574Z,60.14
2022-10-24T12:06:59.734Z,60.15
2022-10-24T12:09:45.394Z,59.82
2022-10-24T12:12:39.815Z,60.60
2022-10-24T12:15:47.648Z,57.06
2022-10-24T12:18:38.541Z,56.76
2022-10-24T12:21:15.148Z,56.21
2022-10-24T12:23:43.033Z,56.92
2022-10-24T12:26:21.540Z,58.25
2022-10-24T12:28:59.448Z,56.16
2022-10-24T12:31:31.296Z,57.16
2022-10-24T12:34:16.866Z,56.03
2022-10-24T12:37:31.026Z,57.19
2022-10-24T12:39:58.767Z,56.96
2022-10-24T12:42:25.674Z,56.37
2022-10-24T12:45:28.578Z,58.02
2022-10-24T12:50:28.996Z,58.05
2022-10-24T12:53:31.959Z,59.60
2022-10-24T12:55:58.751Z,56.53
2022-10-24T12:58:30.126Z,56.50
2022-10-24T13:01:26.197Z,55.13
2022-10-24T13:04:06.234Z,54.63
2022-10-24T13:07:05.832Z,54.87
2022-10-24T13:09:42.944Z,51.66
2022-10-24T13:12:36.407Z,49.62
2022-10-24T13:15:22.294Z,48.38
2022-10-24T13:18:00.023Z,48.71
2022-10-24T13:20:37.363Z,49.21
2022-10-24T13:23:27.099Z,47.44
2022-10-24T13:25:58.632Z,47.17
2022-10-24T13:28:25.432Z,47.19
2022-10-24T13:31:17.704Z,47.86
2022-10-24T13:33:45.908Z,45.65
2022-10-24T13:36:23.116Z,44.26
2022-10-24T13:39:00.755Z,45.08
2022-10-24T13:41:28.908Z,45.64
2022-10-24T13:43:59.518Z,45.17
2022-10-24T13:46:37.104Z,46.92
2022-10-24T13:49:05.256Z,48.39
2022-10-24T13:51:34.829Z,48.42
2022-10-24T13:54:07.681Z,47.46
2022-10-24T13:56:38.434Z,48.14
2022-10-24T13:59:05.313Z,49.51
2022-10-24T14:01:36.431Z,47.07
2022-10-24T14:04:03.450Z,46.48
2022-10-24T14:06:32.001Z,45.56
2022-10-24T14:09:07.491Z,45.02
2022-10-24T14:11:35.459Z,43.45
2022-10-24T14:14:07.205Z,43.83
2022-10-24T14:16:35.836Z,43.48
2022-10-24T14:19:29.548Z,43.64
2022-10-24T14:21:58.604Z,42.88
2022-10-24T14:24:26.082Z,43.42
2022-10-24T14:26:57.044Z,44.69
2022-10-24T14:29:27.834Z,44.33
2022-10-24T14:32:01.430Z,44.44
2022-10-24T14:34:35.197Z,43.59
2022-10-24T14:37:12.582Z,44.53
2022-10-24T14:39:39.817Z,45.74
2022-10-24T14:42:13.832Z,46.22
2022-10-24T14:44:42.159Z,46.66
2022-10-24T14:47:20.848Z,47.39
2022-10-24T14:49:47.968Z,46.31
2022-10-24T14:52:14.774Z,55.20
2022-10-24T14:54:44.249Z,57.60
2022-10-24T14:57:20.377Z,58.32
2022-10-24T14:59:48.390Z,57.57
2022-10-24T15:02:29.643Z,58.63
2022-10-24T15:05:16.624Z,56.85
2022-10-24T15:07:57.267Z,59.11
2022-10-24T15:10:36.696Z,56.93
2022-10-24T15:13:10.803Z,60.30
2022-10-24T15:15:47.956Z,57.86
2022-10-24T15:18:26.637Z,62.14
2022-10-24T15:21:01.729Z,62.35
2022-10-24T15:23:31.610Z,62.85
2022-10-24T15:26:12.423Z,62.63
2022-10-24T15:28:44.626Z,65.89
2022-10-24T15:31:15.997Z,64.00
2022-10-24T15:33:43.123Z,67.89
2022-10-24T15:36:24.457Z,63.78
2022-10-24T15:38:56.464Z,63.28
2022-10-24T15:41:23.639Z,64.93
2022-10-24T15:43:50.630Z,63.77
2022-10-24T15:46:17.550Z,62.46
2022-10-24T15:48:45.645Z,64.21
2022-10-24T15:51:15.711Z,66.27
2022-10-24T15:53:43.398Z,64.59
2022-10-24T15:56:11.892Z,64.85
2022-10-24T15:58:40.238Z,66.05
2022-10-24T16:01:08.718Z,64.88
2022-10-24T16:03:36.079Z,64.87
2022-10-24T16:06:04.599Z,63.99
2022-10-24T16:08:31.931Z,63.16
2022-10-24T16:10:58.805Z,67.16
2022-10-24T16:13:25.724Z,68.17
2022-10-24T16:15:52.792Z,69.22
2022-10-24T16:18:19.627Z,66.01
2022-10-24T16:20:46.808Z,63.74
2022-10-24T16:23:15.452Z,62.61
2022-10-24T16:25:43.627Z,63.41
2022-10-24T16:28:10.825Z,61.33
2022-10-24T16:30:39.179Z,61.56
2022-10-24T16:33:06.173Z,63.07
2022-10-24T16:35:35.130Z,62.42
2022-10-24T16:38:02.553Z,67.58
2022-10-24T16:40:29.953Z,66.51
2022-10-24T16:42:58.389Z,66.23
2022-10-24T16:45:25.981Z,64.69
2022-10-24T16:47:52.951Z,62.53
2022-10-24T16:50:24.908Z,61.20
2022-10-24T16:53:00.106Z,60.81
2022-10-24T16:55:27.989Z,60.63
2022-10-24T16:57:54.920Z,61.03
2022-10-24T17:00:22.714Z,62.59
2022-10-24T17:02:51.826Z,60.50
2022-10-24T17:05:20.773Z,63.32
2022-10-24T17:07:47.969Z,70.42
2022-10-24T17:10:18.391Z,63.24
2022-10-24T17:12:47.713Z,61.67
2022-10-24T17:15:18.094Z,62.65
2022-10-24T17:17:48.470Z,60.69
2022-10-24T17:20:15.907Z,61.80
2022-10-24T17:22:44.618Z,59.93
2022-10-24T17:25:19.584Z,67.03
2022-10-24T17:27:46.966Z,69.97
2022-10-24T17:30:22.328Z,66.95
2022-10-24T17:32:49.685Z,60.71
2022-10-24T17:35:19.051Z,62.87
2022-10-24T17:38:07.933Z,64.65
2022-10-24T17:40:42.949Z,60.38
2022-10-24T17:43:25.624Z,61.19
2022-10-24T17:45:54.870Z,63.37
2022-10-24T17:48:22.206Z,62.03
2022-10-24T17:50:49.498Z,63.86
2022-10-24T17:53:18.382Z,62.21
2022-10-24T17:55:47.034Z,65.27
2022-10-24T17:58:15.181Z,64.80
2022-10-24T18:00:42.181Z,64.23
2022-10-24T18:03:09.136Z,63.66
2022-10-24T18:05:38.504Z,71.01
2022-10-24T18:08:10.760Z,69.86
2022-10-24T18:10:41.042Z,66.73
2022-10-24T18:13:08.576Z,66.30
2022-10-24T18:15:36.387Z,67.78
2022-10-24T18:18:03.304Z,72.84
2022-10-24T18:20:30.393Z,80.07
2022-10-24T18:22:58.293Z,74.64
2022-10-24T18:25:25.161Z,65.44
2022-10-24T18:27:52.034Z,70.83
2022-10-24T18:30:19.693Z,69.37
2022-10-24T18:32:47.164Z,68.53
2022-10-24T18:35:14.455Z,71.07
2022-10-24T18:37:41.460Z,69.92
2022-10-24T18:40:09.641Z,68.29
2022-10-24T18:42:59.094Z,69.46
2022-10-24T18:45:27.498Z,70.34
2022-10-24T18:47:54.694Z,74.91
2022-10-24T18:50:23.833Z,68.87
2022-10-24T18:53:02.152Z,69.32
2022-10-24T18:55:31.500Z,71.32
2022-10-24T18:57:58.831Z,76.82
2022-10-24T19:00:31.688Z,71.77
2022-10-24T19:03:33.806Z,78.37
2022-10-24T19:06:15.806Z,71.67
2022-10-24T19:08:42.764Z,69.33
2022-10-24T19:13:42.420Z,67.70
2022-10-24T19:16:13.065Z,66.89
2022-10-24T19:18:40.617Z,67.52
2022-10-24T19:21:08.151Z,66.92
2022-10-24T19:23:34.994Z,63.77
2022-10-24T19:26:01.858Z,66.21
2022-10-24T19:28:28.718Z,67.63
2022-10-24T19:30:55.630Z,67.06
2022-10-24T19:33:25.153Z,66.49
2022-10-24T19:35:52.011Z,67.32
2022-10-24T19:38:19.321Z,67.08
2022-10-24T19:40:47.637Z,73.39
2022-10-24T19:43:14.475Z,70.21
2022-10-24T19:45:49.940Z,69.75
2022-10-24T19:48:17.853Z,71.20
2022-10-24T19:50:44.778Z,69.44
2022-10-24T19:53:14.388Z,68.58
2022-10-24T19:55:44.245Z,65.62
2022-10-24T19:58:11.835Z,65.72
2022-10-24T20:00:39.425Z,67.46
2022-10-24T20:03:06.318Z,66.73
2022-10-24T20:05:33.242Z,65.28
2022-10-24T20:08:00.218Z,65.36
2022-10-24T20:10:27.277Z,67.14
2022-10-24T20:12:54.140Z,70.12
2022-10-24T20:15:20.999Z,69.13
2022-10-24T20:17:47.872Z,70.08
2022-10-24T20:20:14.872Z,68.36
2022-10-24T20:22:41.759Z,68.69
2022-10-24T20:25:08.669Z,68.93
2022-10-24T20:27:38.913Z,63.60
2022-10-24T20:30:06.417Z,67.07
2022-10-24T20:32:33.259Z,66.84
2022-10-24T20:35:00.112Z,67.27
2022-10-24T20:37:26.985Z,63.81
2022-10-24T20:39:53.848Z,65.53
2022-10-24T20:42:22.378Z,65.97
2022-10-24T20:44:50.255Z,69.93
2022-10-24T20:47:17.101Z,78.76
2022-10-24T20:49:43.943Z,87.49
2022-10-24T20:54:42.506Z,85.77
2022-10-24T20:57:09.339Z,86.23
2022-10-24T20:59:36.197Z,76.62
2022-10-24T21:02:03.103Z,74.02
2022-10-24T21:04:30.206Z,71.89
2022-10-24T21:06:57.031Z,72.86
2022-10-24T21:09:23.939Z,71.76
2022-10-24T21:11:50.759Z,70.26
2022-10-24T21:14:20.834Z,71.51
2022-10-24T21:16:47.984Z,70.29
2022-10-24T21:19:14.833Z,72.37
2022-10-24T21:21:41.740Z,69.95
2022-10-24T21:24:08.739Z,69.51
2022-10-24T21:26:38.666Z,67.10
2022-10-24T21:29:31.803Z,66.41
2022-10-24T21:31:53.196Z,67.40
2022-10-24T21:34:20.249Z,71.10
2022-10-24T21:36:47.525Z,72.66
2022-10-24T21:39:15.565Z,73.80
2022-10-24T21:41:42.486Z,75.67
2022-10-24T21:44:09.356Z,78.81
2022-10-24T21:46:36.208Z,81.41
2022-10-24T21:49:03.105Z,82.57
2022-10-24T21:51:35.148Z,80.42
2022-10-24T21:54:04.402Z,75.37
2022-10-24T21:56:33.180Z,76.30
2022-10-24T22:01:32.346Z,75.06
2022-10-24T22:03:59.998Z,77.06
2022-10-24T22:06:28.132Z,76.36
2022-10-24T22:08:55.337Z,75.48
2022-10-24T22:11:24.861Z,74.14
2022-10-24T22:13:52.181Z,76.74
2022-10-24T22:16:21.719Z,72.96
2022-10-24T22:18:49.173Z,71.64
2022-10-24T22:21:27.629Z,72.91
2022-10-24T22:24:02.041Z,74.13
2022-10-24T22:26:29.794Z,74.92
2022-10-24T22:28:57.065Z,73.49
2022-10-24T22:31:25.626Z,73.22
2022-10-24T22:33:53.004Z,73.66
2022-10-24T22:36:47.874Z,72.25
2022-10-24T22:39:17.078Z,66.31
2022-10-24T22:41:44.871Z,67.32
2022-10-24T22:44:13.583Z,69.46
2022-10-24T22:47:18.020Z,68.58
2022-10-24T22:50:03.641Z,70.70
2022-10-24T22:52:30.701Z,67.67
2022-10-24T22:54:58.752Z,64.48
2022-10-24T22:57:25.973Z,65.40
2022-10-24T22:59:53.060Z,70.57
2022-10-24T23:02:29.200Z,69.76
2022-10-24T23:05:19.875Z,70.28
2022-10-24T23:08:00.003Z,72.83
2022-10-24T23:10:26.871Z,74.62
2022-10-24T23:12:54.094Z,75.44
2022-10-24T23:15:22.048Z,78.66
2022-10-24T23:17:50.149Z,81.84
2022-10-24T23:20:36.091Z,83.39
2022-10-24T23:23:15.984Z,84.73
2022-10-24T23:25:48.932Z,85.66
2022-10-24T23:28:20.016Z,85.34
2022-10-24T23:30:47.131Z,86.40
2022-10-24T23:33:22.793Z,86.61
2022-10-24T23:35:57.288Z,86.48
2022-10-24T23:38:24.502Z,88.29
2022-10-24T23:40:51.813Z,87.28
2022-10-24T23:43:21.145Z,85.07
2022-10-24T23:45:58.213Z,85.27
2022-10-24T23:48:50.150Z,86.10
2022-10-24T23:51:24.794Z,85.59
2022-10-24T23:53:55.541Z,88.57
2022-10-24T23:56:24.532Z,86.57
2022-10-24T23:58:51.793Z,87.77
